createdAt,value
2023-04-01T00:03:36.691Z,39.53
2023-04-01T00:06:05.229Z,39.57
2023-04-01T00:08:33.631Z,39.65
2023-04-01T00:11:02.269Z,39.80
2023-04-01T00:13:30.578Z,39.86
2023-04-01T00:16:00.169Z,39.89
2023-04-01T00:18:32.173Z,39.98
2023-04-01T00:21:00.418Z,39.97
2023-04-01T00:23:29.079Z,40.12
2023-04-01T00:25:57.095Z,40.25
2023-04-01T00:28:25.933Z,40.39
2023-04-01T00:30:54.755Z,40.41
2023-04-01T00:33:23.060Z,40.52
2023-04-01T00:35:51.364Z,40.70
2023-04-01T00:38:20.726Z,40.81
2023-04-01T00:40:49.409Z,41.00
2023-04-01T00:43:20.628Z,41.12
2023-04-01T00:45:50.779Z,41.16
2023-04-01T00:48:25.992Z,41.29
2023-04-01T00:51:07.406Z,41.50
2023-04-01T00:53:40.018Z,41.48
2023-04-01T00:56:16.179Z,41.70
2023-04-01T00:59:00.171Z,41.87
2023-04-01T01:01:31.095Z,42.00
2023-04-01T01:03:59.893Z,42.05
2023-04-01T01:06:51.828Z,42.18
2023-04-01T01:09:30.512Z,42.12
2023-04-01T01:12:04.698Z,42.28
2023-04-01T01:14:45.631Z,42.21
2023-04-01T01:17:38.771Z,42.16
2023-04-01T01:20:39.087Z,42.28
2023-04-01T01:23:42.731Z,42.26
2023-04-01T01:26:29.679Z,42.28
2023-04-01T01:29:16.580Z,42.54
2023-04-01T01:32:22.085Z,42.49
2023-04-01T01:35:17.971Z,42.71
2023-04-01T01:37:47.813Z,42.75
2023-04-01T01:40:17.159Z,42.86
2023-04-01T01:42:50.795Z,43.03
2023-04-01T01:45:22.837Z,43.13
2023-04-01T01:47:52.883Z,43.08
2023-04-01T01:50:25.112Z,43.22
2023-04-01T01:53:04.837Z,43.34
2023-04-01T01:55:37.247Z,43.36
2023-04-01T01:58:33.678Z,43.39
2023-04-01T02:01:07.023Z,43.41
2023-04-01T02:03:39.178Z,43.44
2023-04-01T02:06:11.050Z,43.48
2023-04-01T02:08:56.559Z,43.49
2023-04-01T02:11:33.633Z,43.45
2023-04-01T02:14:11.053Z,43.53
2023-04-01T02:16:42.628Z,43.54
2023-04-01T02:19:13.094Z,43.61
2023-04-01T02:21:43.785Z,43.59
2023-04-01T02:24:15.401Z,43.60
2023-04-01T02:26:47.051Z,43.62
2023-04-01T02:29:16.762Z,43.54
2023-04-01T02:31:45.277Z,43.47
2023-04-01T02:34:14.922Z,43.43
2023-04-01T02:36:44.125Z,43.39
2023-04-01T02:39:14.188Z,43.36
2023-04-01T02:41:44.705Z,43.18
2023-04-01T02:44:14.625Z,42.98
2023-04-01T02:46:43.927Z,42.88
2023-04-01T02:49:12.902Z,42.78
2023-04-01T02:51:41.134Z,42.58
2023-04-01T02:54:09.917Z,42.55
2023-04-01T02:56:38.050Z,42.54
2023-04-01T02:59:06.762Z,42.48
2023-04-01T03:01:35.124Z,42.34
2023-04-01T03:04:04.536Z,42.26
2023-04-01T03:06:33.905Z,42.21
2023-04-01T03:09:01.964Z,42.08
2023-04-01T03:11:31.143Z,42.01
2023-04-01T03:13:59.337Z,41.78
2023-04-01T03:16:27.517Z,41.69
2023-04-01T03:18:55.904Z,41.70
2023-04-01T03:21:25.387Z,41.45
2023-04-01T03:23:53.468Z,41.62
2023-04-01T03:26:22.615Z,41.27
2023-04-01T03:28:50.894Z,41.14
2023-04-01T03:31:20.421Z,41.19
2023-04-01T03:33:49.974Z,41.02
2023-04-01T03:36:18.879Z,40.99
2023-04-01T03:38:48.127Z,41.08
2023-04-01T03:41:18.457Z,40.99
2023-04-01T03:43:46.927Z,41.15
2023-04-01T03:46:20.033Z,41.12
2023-04-01T03:48:48.395Z,41.06
2023-04-01T03:51:16.625Z,41.05
2023-04-01T03:53:45.320Z,40.85
2023-04-01T03:56:13.734Z,40.78
2023-04-01T03:58:41.945Z,40.78
2023-04-01T04:01:22.170Z,40.76
2023-04-01T04:03:52.049Z,40.66
2023-04-01T04:06:20.817Z,40.45
2023-04-01T04:08:49.457Z,40.53
2023-04-01T04:11:17.835Z,40.64
2023-04-01T04:13:46.772Z,40.48
2023-04-01T04:16:16.335Z,40.61
2023-04-01T04:18:44.600Z,40.60
2023-04-01T04:21:16.885Z,40.62
2023-04-01T04:23:45.202Z,40.63
2023-04-01T04:26:15.267Z,40.68
2023-04-01T04:28:43.877Z,40.82
2023-04-01T04:31:12.228Z,40.91
2023-04-01T04:33:40.564Z,40.93
2023-04-01T04:36:09.325Z,41.05
2023-04-01T04:38:37.421Z,41.09
2023-04-01T04:41:10.890Z,41.09
2023-04-01T04:43:40.721Z,41.20
2023-04-01T04:46:11.268Z,41.28
2023-04-01T04:48:39.656Z,41.32
2023-04-01T04:51:07.686Z,41.32
2023-04-01T04:53:36.337Z,41.44
2023-04-01T04:56:04.760Z,41.44
2023-04-01T04:58:34.930Z,41.49
2023-04-01T05:01:12.842Z,41.50
2023-04-01T05:03:41.292Z,41.51
2023-04-01T05:06:13.366Z,41.52
2023-04-01T05:08:43.275Z,41.55
2023-04-01T05:11:15.710Z,41.57
2023-04-01T05:13:45.191Z,41.62
2023-04-01T05:16:16.899Z,41.73
2023-04-01T05:18:46.017Z,41.79
2023-04-01T05:21:15.884Z,41.84
2023-04-01T05:23:43.954Z,41.94
2023-04-01T05:26:15.492Z,41.89
2023-04-01T05:28:44.375Z,41.90
2023-04-01T05:31:13.034Z,41.94
2023-04-01T05:33:41.707Z,42.04
2023-04-01T05:36:16.670Z,42.04
2023-04-01T05:38:45.289Z,42.11
2023-04-01T05:41:14.624Z,42.10
2023-04-01T05:43:44.386Z,42.13
2023-04-01T05:46:12.962Z,42.20
2023-04-01T05:48:41.226Z,42.24
2023-04-01T05:51:14.774Z,42.25
2023-04-01T05:53:43.976Z,42.27
2023-04-01T05:56:12.220Z,42.28
2023-04-01T05:58:40.798Z,42.32
2023-04-01T06:01:15.860Z,42.44
2023-04-01T06:03:45.522Z,42.35
2023-04-01T06:06:27.609Z,42.24
2023-04-01T06:08:59.039Z,42.16
2023-04-01T06:11:44.270Z,42.07
2023-04-01T06:14:24.442Z,41.73
2023-04-01T06:17:10.537Z,41.46
2023-04-01T06:20:02.404Z,41.24
2023-04-01T06:23:18.517Z,41.00
2023-04-01T06:26:14.159Z,40.67
2023-04-01T06:28:49.731Z,40.13
2023-04-01T06:31:36.322Z,39.96
2023-04-01T06:34:31.262Z,39.74
2023-04-01T06:37:05.593Z,39.41
2023-04-01T06:39:54.750Z,39.41
2023-04-01T06:42:25.837Z,39.30
2023-04-01T06:45:18.898Z,39.11
2023-04-01T06:48:43.202Z,41.63
2023-04-01T06:51:17.359Z,45.38
2023-04-01T06:54:04.962Z,45.53
2023-04-01T06:56:35.498Z,46.50
2023-04-01T06:59:15.286Z,47.54
2023-04-01T07:01:54.062Z,48.02
2023-04-01T07:04:30.551Z,49.53
2023-04-01T07:07:07.064Z,50.08
2023-04-01T07:09:42.777Z,50.72
2023-04-01T07:12:44.485Z,51.40
2023-04-01T07:15:51.048Z,52.50
2023-04-01T07:18:26.711Z,53.02
2023-04-01T07:20:56.555Z,52.55
2023-04-01T07:23:32.602Z,53.55
2023-04-01T07:26:05.699Z,53.89
2023-04-01T07:28:34.946Z,53.64
2023-04-01T07:31:27.078Z,53.40
2023-04-01T07:34:15.587Z,53.89
2023-04-01T07:36:49.254Z,54.17
2023-04-01T07:39:32.552Z,53.81
2023-04-01T07:42:13.095Z,53.42
2023-04-01T07:45:31.373Z,52.23
2023-04-01T07:48:05.417Z,52.33
2023-04-01T07:50:39.518Z,52.08
2023-04-01T07:53:36.813Z,51.39
2023-04-01T07:56:12.903Z,50.66
2023-04-01T07:59:02.581Z,50.53
2023-04-01T08:01:51.513Z,50.54
2023-04-01T08:04:50.578Z,50.11
2023-04-01T08:07:27.036Z,49.96
2023-04-01T08:10:19.106Z,50.31
2023-04-01T08:13:04.972Z,49.91
2023-04-01T08:15:46.933Z,49.21
2023-04-01T08:18:32.474Z,49.28
2023-04-01T08:21:11.648Z,49.13
2023-04-01T08:23:49.922Z,48.60
2023-04-01T08:26:30.270Z,47.82
2023-04-01T08:29:23.256Z,47.22
2023-04-01T08:32:27.648Z,46.06
2023-04-01T08:35:39.312Z,45.24
2023-04-01T08:38:14.767Z,44.63
2023-04-01T08:41:03.282Z,44.53
2023-04-01T08:43:58.083Z,44.27
2023-04-01T08:46:41.638Z,43.80
2023-04-01T08:49:09.945Z,43.45
2023-04-01T08:51:56.339Z,42.26
2023-04-01T08:54:27.028Z,42.22
2023-04-01T08:57:16.177Z,42.49
2023-04-01T08:59:56.331Z,42.54
2023-04-01T09:02:51.256Z,42.55
2023-04-01T09:05:36.663Z,43.09
2023-04-01T09:08:13.707Z,43.47
2023-04-01T09:11:06.622Z,43.63
2023-04-01T09:14:05.535Z,43.97
2023-04-01T09:16:52.576Z,44.35
2023-04-01T09:20:10.800Z,44.20
2023-04-01T09:22:52.483Z,44.06
2023-04-01T09:25:43.012Z,44.09
2023-04-01T09:28:19.677Z,44.54
2023-04-01T09:31:02.912Z,44.48
2023-04-01T09:34:13.212Z,44.95
2023-04-01T09:37:08.797Z,45.27
2023-04-01T09:40:15.465Z,45.61
2023-04-01T09:43:05.625Z,45.82
2023-04-01T09:46:32.042Z,46.22
2023-04-01T09:49:35.826Z,46.21
2023-04-01T09:52:22.913Z,46.22
2023-04-01T09:55:07.428Z,46.13
2023-04-01T09:58:00.836Z,46.29
2023-04-01T10:00:44.660Z,46.45
2023-04-01T10:03:42.969Z,46.57
2023-04-01T10:06:29.912Z,46.08
2023-04-01T10:09:03.961Z,46.10
2023-04-01T10:11:47.384Z,46.17
2023-04-01T10:15:04.863Z,46.17
2023-04-01T10:17:48.502Z,46.08
2023-04-01T10:20:50.585Z,46.27
2023-04-01T10:23:43.527Z,46.15
2023-04-01T10:26:48.218Z,45.87
2023-04-01T10:29:41.062Z,45.74
2023-04-01T10:32:30.517Z,45.71
2023-04-01T10:35:48.611Z,45.71
2023-04-01T10:38:42.291Z,45.43
2023-04-01T10:41:25.565Z,45.43
2023-04-01T10:44:29.153Z,45.74
2023-04-01T10:47:09.581Z,46.06
2023-04-01T10:50:12.136Z,46.13
2023-04-01T10:53:31.010Z,46.30
2023-04-01T10:56:31.051Z,46.68
2023-04-01T10:59:30.296Z,46.79
2023-04-01T11:02:37.869Z,47.15
2023-04-01T11:05:29.516Z,47.15
2023-04-01T11:08:42.435Z,47.16
2023-04-01T11:11:40.914Z,47.26
2023-04-01T11:14:27.760Z,47.48
2023-04-01T11:17:33.648Z,47.44
2023-04-01T11:20:04.873Z,47.14
2023-04-01T11:23:07.197Z,46.55
2023-04-01T11:25:51.659Z,46.16
2023-04-01T11:28:41.294Z,46.18
2023-04-01T11:31:47.981Z,45.91
2023-04-01T11:34:33.544Z,45.59
2023-04-01T11:37:06.481Z,45.51
2023-04-01T11:39:52.594Z,44.86
2023-04-01T11:42:29.648Z,45.31
2023-04-01T11:45:44.827Z,45.30
2023-04-01T11:48:29.298Z,45.03
2023-04-01T11:51:17.575Z,44.76
2023-04-01T11:54:00.763Z,44.47
2023-04-01T11:56:51.747Z,44.65
2023-04-01T11:59:52.681Z,44.83
2023-04-01T12:03:01.019Z,44.52
2023-04-01T12:06:01.593Z,43.98
2023-04-01T12:08:55.365Z,43.45
2023-04-01T12:11:52.182Z,42.80
2023-04-01T12:14:55.827Z,41.82
2023-04-01T12:18:05.211Z,41.80
2023-04-01T12:20:39.394Z,41.91
2023-04-01T12:23:26.802Z,41.69
2023-04-01T12:26:25.403Z,41.86
2023-04-01T12:29:16.284Z,42.05
2023-04-01T12:32:16.599Z,42.28
2023-04-01T12:35:11.149Z,43.09
2023-04-01T12:38:17.402Z,44.44
2023-04-01T12:41:04.283Z,46.49
2023-04-01T12:44:10.013Z,48.08
2023-04-01T12:47:21.706Z,48.90
2023-04-01T12:50:19.571Z,48.22
2023-04-01T12:53:07.607Z,47.55
2023-04-01T12:55:46.822Z,47.29
2023-04-01T12:58:36.912Z,46.47
2023-04-01T13:01:23.613Z,43.87
2023-04-01T13:04:02.329Z,44.63
2023-04-01T13:07:16.116Z,44.81
2023-04-01T13:10:13.700Z,45.24
2023-04-01T13:12:42.022Z,44.89
2023-04-01T13:15:41.578Z,44.09
2023-04-01T13:18:31.272Z,44.32
2023-04-01T13:21:35.893Z,44.05
2023-04-01T13:24:07.193Z,42.99
2023-04-01T13:27:00.132Z,43.29
2023-04-01T13:29:39.746Z,43.31
2023-04-01T13:32:22.265Z,42.97
2023-04-01T13:35:29.141Z,42.58
2023-04-01T13:38:29.915Z,42.29
2023-04-01T13:41:35.607Z,43.15
2023-04-01T13:44:08.324Z,44.05
2023-04-01T13:46:59.070Z,45.19
2023-04-01T13:49:59.114Z,44.90
2023-04-01T13:52:51.968Z,44.80
2023-04-01T13:55:32.032Z,44.89
2023-04-01T13:58:28.816Z,44.90
2023-04-01T14:01:06.917Z,45.00
2023-04-01T14:04:05.016Z,45.32
2023-04-01T14:07:20.433Z,43.82
2023-04-01T14:10:26.050Z,43.74
2023-04-01T14:13:05.780Z,45.94
2023-04-01T14:15:57.137Z,46.63
2023-04-01T14:18:52.406Z,47.24
2023-04-01T14:21:51.561Z,47.91
2023-04-01T14:24:23.953Z,47.84
2023-04-01T14:27:20.301Z,48.71
2023-04-01T14:30:16.340Z,49.23
2023-04-01T14:33:03.212Z,49.00
2023-04-01T14:36:00.711Z,49.06
2023-04-01T14:38:51.201Z,49.90
2023-04-01T14:41:45.683Z,51.98
2023-04-01T14:44:52.350Z,52.87
2023-04-01T14:47:52.954Z,53.08
2023-04-01T14:50:25.488Z,53.13
2023-04-01T14:53:29.344Z,53.02
2023-04-01T14:56:01.000Z,53.09
2023-04-01T14:58:51.584Z,52.38
2023-04-01T15:01:31.902Z,52.09
2023-04-01T15:04:09.441Z,50.63
2023-04-01T15:06:55.476Z,51.12
2023-04-01T15:09:59.550Z,51.15
2023-04-01T15:13:22.077Z,51.01
2023-04-01T15:16:03.538Z,50.36
2023-04-01T15:18:50.535Z,49.36
2023-04-01T15:21:41.818Z,48.11
2023-04-01T15:24:36.917Z,48.23
2023-04-01T15:27:20.582Z,48.67
2023-04-01T15:29:56.170Z,48.40
2023-04-01T15:32:46.874Z,47.50
2023-04-01T15:35:27.306Z,48.74
2023-04-01T15:38:04.186Z,47.59
2023-04-01T15:40:48.991Z,47.69
2023-04-01T15:43:30.483Z,47.96
2023-04-01T15:46:29.611Z,47.10
2023-04-01T15:49:27.884Z,46.96
2023-04-01T15:52:06.522Z,47.47
2023-04-01T15:54:40.620Z,47.97
2023-04-01T15:57:25.534Z,47.95
2023-04-01T16:00:38.039Z,47.83
2023-04-01T16:03:15.816Z,47.42
2023-04-01T16:06:10.024Z,46.93
2023-04-01T16:08:58.454Z,46.26
2023-04-01T16:11:58.072Z,46.21
2023-04-01T16:14:59.828Z,46.93
2023-04-01T16:17:46.523Z,47.18
2023-04-01T16:20:25.469Z,47.06
2023-04-01T16:23:01.555Z,46.89
2023-04-01T16:25:38.948Z,46.95
2023-04-01T16:28:09.767Z,46.59
2023-04-01T16:30:49.787Z,46.67
2023-04-01T16:33:42.394Z,47.12
2023-04-01T16:36:34.014Z,48.13
2023-04-01T16:39:31.433Z,48.55
2023-04-01T16:42:50.298Z,49.41
2023-04-01T16:45:30.426Z,49.79
2023-04-01T16:48:18.500Z,49.90
2023-04-01T16:50:52.653Z,50.48
2023-04-01T16:53:41.794Z,50.90
2023-04-01T16:56:16.265Z,51.02
2023-04-01T16:59:08.644Z,50.76
2023-04-01T17:01:48.973Z,50.64
2023-04-01T17:04:54.718Z,50.23
2023-04-01T17:07:49.290Z,49.76
2023-04-01T17:10:41.302Z,49.19
2023-04-01T17:13:09.759Z,48.72
2023-04-01T17:15:53.840Z,48.02
2023-04-01T17:18:50.452Z,47.55
2023-04-01T17:21:41.223Z,47.83
2023-04-01T17:24:31.571Z,48.38
2023-04-01T17:27:26.232Z,48.25
2023-04-01T17:30:14.587Z,48.22
2023-04-01T17:33:40.711Z,48.81
2023-04-01T17:36:36.770Z,48.83
2023-04-01T17:39:26.966Z,48.78
2023-04-01T17:42:35.755Z,49.07
2023-04-01T17:45:32.507Z,49.73
2023-04-01T17:48:25.217Z,50.13
2023-04-01T17:51:28.467Z,50.30
2023-04-01T17:54:38.289Z,50.41
2023-04-01T17:57:51.534Z,51.16
2023-04-01T18:00:42.204Z,52.06
2023-04-01T18:03:56.338Z,52.18
2023-04-01T18:06:39.468Z,52.57
2023-04-01T18:09:42.877Z,52.92
2023-04-01T18:12:55.722Z,53.46
2023-04-01T18:15:38.829Z,54.02
2023-04-01T18:18:36.199Z,54.36
2023-04-01T18:21:22.965Z,55.04
2023-04-01T18:24:03.898Z,55.28
2023-04-01T18:26:38.500Z,55.91
2023-04-01T18:29:16.171Z,55.70
2023-04-01T18:31:47.019Z,55.70
2023-04-01T18:34:53.485Z,56.43
2023-04-01T18:37:40.536Z,57.29
2023-04-01T18:40:22.280Z,57.21
2023-04-01T18:42:59.070Z,57.55
2023-04-01T18:45:38.530Z,57.83
2023-04-01T18:48:39.788Z,57.89
2023-04-01T18:51:34.328Z,57.87
2023-04-01T18:54:26.054Z,58.08
2023-04-01T18:57:23.129Z,58.13
2023-04-01T18:59:58.823Z,58.05
2023-04-01T19:02:37.577Z,58.19
2023-04-01T19:05:32.859Z,58.14
2023-04-01T19:08:22.743Z,58.19
2023-04-01T19:11:02.735Z,58.26
2023-04-01T19:13:49.487Z,58.59
2023-04-01T19:16:24.412Z,58.80
2023-04-01T19:18:52.584Z,58.71
2023-04-01T19:21:32.985Z,58.67
2023-04-01T19:24:34.650Z,58.89
2023-04-01T19:27:07.420Z,59.20
2023-04-01T19:30:17.821Z,59.08
2023-04-01T19:33:39.518Z,58.97
2023-04-01T19:36:21.086Z,59.12
2023-04-01T19:39:22.193Z,59.33
2023-04-01T19:42:09.813Z,59.72
2023-04-01T19:44:59.823Z,59.75
2023-04-01T19:47:28.057Z,59.81
2023-04-01T19:50:10.014Z,60.38
2023-04-01T19:52:44.113Z,60.42
2023-04-01T19:55:38.467Z,61.14
2023-04-01T19:58:27.543Z,61.84
2023-04-01T20:00:59.908Z,61.34
2023-04-01T20:03:49.403Z,61.45
2023-04-01T20:06:37.354Z,61.49
2023-04-01T20:09:35.456Z,61.57
2023-04-01T20:12:49.067Z,61.57
2023-04-01T20:15:52.997Z,61.51
2023-04-01T20:18:26.496Z,61.62
2023-04-01T20:21:03.451Z,61.69
2023-04-01T20:23:37.509Z,61.70
2023-04-01T20:26:20.899Z,61.81
2023-04-01T20:29:10.825Z,61.77
2023-04-01T20:31:42.879Z,61.72
2023-04-01T20:34:45.430Z,61.85
2023-04-01T20:37:59.095Z,61.77
2023-04-01T20:41:13.221Z,61.64
2023-04-01T20:44:06.436Z,61.50
2023-04-01T20:46:49.090Z,61.31
2023-04-01T20:49:18.046Z,61.11
2023-04-01T20:52:23.818Z,61.06
2023-04-01T20:55:22.772Z,60.99
2023-04-01T20:57:56.996Z,60.99
2023-04-01T21:00:37.180Z,61.03
2023-04-01T21:03:39.503Z,61.12
2023-04-01T21:06:33.244Z,61.08
2023-04-01T21:09:26.317Z,60.99
2023-04-01T21:12:26.159Z,60.93
2023-04-01T21:15:27.875Z,60.84
2023-04-01T21:18:08.625Z,60.83
2023-04-01T21:20:55.003Z,61.13
2023-04-01T21:23:35.644Z,61.68
2023-04-01T21:26:25.057Z,61.96
2023-04-01T21:29:31.222Z,62.21
2023-04-01T21:32:36.151Z,63.12
2023-04-01T21:35:18.221Z,63.54
2023-04-01T21:38:07.996Z,63.82
2023-04-01T21:41:30.431Z,63.85
2023-04-01T21:44:30.589Z,64.01
2023-04-01T21:47:09.995Z,64.11
2023-04-01T21:50:08.926Z,64.39
2023-04-01T21:52:46.398Z,64.11
2023-04-01T21:55:56.143Z,64.04
2023-04-01T21:58:50.031Z,64.03
2023-04-01T22:01:39.431Z,64.07
2023-04-01T22:04:26.571Z,63.92
2023-04-01T22:07:10.155Z,63.68
2023-04-01T22:09:50.157Z,63.41
2023-04-01T22:12:27.262Z,63.21
2023-04-01T22:15:26.675Z,62.69
2023-04-01T22:18:23.161Z,62.19
2023-04-01T22:20:56.438Z,61.72
2023-04-01T22:23:34.020Z,61.18
2023-04-01T22:26:59.901Z,60.35
2023-04-01T22:29:30.836Z,59.37
2023-04-01T22:32:18.799Z,58.25
2023-04-01T22:34:47.024Z,56.81
2023-04-01T22:37:36.662Z,57.18
2023-04-01T22:40:23.593Z,55.07
2023-04-01T22:43:00.768Z,54.13
2023-04-01T22:46:06.272Z,53.83
2023-04-01T22:48:50.579Z,51.41
2023-04-01T22:51:41.974Z,50.64
2023-04-01T22:54:39.141Z,48.72
2023-04-01T22:57:17.326Z,48.60
2023-04-01T22:59:56.158Z,50.18
2023-04-01T23:02:33.235Z,52.70
2023-04-01T23:05:03.541Z,54.63
2023-04-01T23:07:50.270Z,59.30
2023-04-01T23:10:46.344Z,65.40
2023-04-01T23:13:23.062Z,64.99
2023-04-01T23:15:54.038Z,66.59
2023-04-01T23:18:34.729Z,62.91
2023-04-01T23:21:37.251Z,60.36
2023-04-01T23:24:23.702Z,60.12
2023-04-01T23:27:08.458Z,60.10
2023-04-01T23:29:38.192Z,61.29
2023-04-01T23:32:14.581Z,61.06
2023-04-01T23:34:54.911Z,60.95
2023-04-01T23:37:24.890Z,61.47
2023-04-01T23:39:59.327Z,62.59
2023-04-01T23:42:33.070Z,64.11
2023-04-01T23:45:17.514Z,65.06
2023-04-01T23:47:48.335Z,65.23
2023-04-01T23:50:25.658Z,65.09
2023-04-01T23:53:00.762Z,65.01
2023-04-01T23:55:33.475Z,65.27
2023-04-01T23:58:07.508Z,64.74
